sensor_id;sensor_type;location;lat;lon;timestamp;P1;P2;P0
62599;PMS7003;48671;48.922;2.346;2022-09-24T00:01:06;13.00;12.00;7.50
62599;PMS7003;48671;48.922;2.346;2022-09-24T00:03:37;17.50;13.75;8.75
62599;PMS7003;48671;48.922;2.346;2022-09-24T00:06:04;14.00;12.50;7.00
62599;PMS7003;48671;48.922;2.346;2022-09-24T00:08:30;15.00;10.50;8.50
62599;PMS7003;48671;48.922;2.346;2022-09-24T00:10:59;8.25;8.00;5.75
62599;PMS7003;48671;48.922;2.346;2022-09-24T00:13:26;12.00;11.00;8.75
62599;PMS7003;48671;48.922;2.346;2022-09-24T00:15:51;13.00;11.00;7.25
62599;PMS7003;48671;48.922;2.346;2022-09-24T00:18:17;13.75;11.00;9.00
62599;PMS7003;48671;48.922;2.346;2022-09-24T00:20:43;18.25;12.50;8.25
62599;PMS7003;48671;48.922;2.346;2022-09-24T00:23:09;17.50;12.25;8.00
62599;PMS7003;48671;48.922;2.346;2022-09-24T00:25:39;17.00;11.75;8.00
62599;PMS7003;48671;48.922;2.346;2022-09-24T00:28:24;10.50;10.25;8.00
62599;PMS7003;48671;48.922;2.346;2022-09-24T00:30:50;14.75;13.00;9.00
62599;PMS7003;48671;48.922;2.346;2022-09-24T00:33:16;12.75;11.25;7.50
62599;PMS7003;48671;48.922;2.346;2022-09-24T00:35:42;16.25;14.00;8.00
62599;PMS7003;48671;48.922;2.346;2022-09-24T00:38:07;14.00;11.75;8.25
62599;PMS7003;48671;48.922;2.346;2022-09-24T00:40:33;15.00;13.75;10.25
62599;PMS7003;48671;48.922;2.346;2022-09-24T00:43:00;17.25;13.50;7.25
62599;PMS7003;48671;48.922;2.346;2022-09-24T00:45:26;16.75;11.75;9.50
62599;PMS7003;48671;48.922;2.346;2022-09-24T00:47:54;15.75;11.00;8.25
62599;PMS7003;48671;48.922;2.346;2022-09-24T00:50:24;13.75;13.75;8.00
62599;PMS7003;48671;48.922;2.346;2022-09-24T00:52:56;13.50;10.50;7.00
62599;PMS7003;48671;48.922;2.346;2022-09-24T00:55:27;12.50;11.00;8.00
62599;PMS7003;48671;48.922;2.346;2022-09-24T00:57:58;12.75;12.50;8.00
62599;PMS7003;48671;48.922;2.346;2022-09-24T01:00:27;15.50;12.00;9.00
62599;PMS7003;48671;48.922;2.346;2022-09-24T01:02:54;16.75;12.75;8.75
62599;PMS7003;48671;48.922;2.346;2022-09-24T01:05:25;16.75;13.75;9.75
62599;PMS7003;48671;48.922;2.346;2022-09-24T01:07:50;18.75;16.75;8.75
62599;PMS7003;48671;48.922;2.346;2022-09-24T01:10:16;12.00;11.25;8.00
62599;PMS7003;48671;48.922;2.346;2022-09-24T01:13:44;12.75;12.75;7.00
62599;PMS7003;48671;48.922;2.346;2022-09-24T01:16:11;17.50;10.25;8.75
62599;PMS7003;48671;48.922;2.346;2022-09-24T01:18:50;12.50;11.00;8.75
62599;PMS7003;48671;48.922;2.346;2022-09-24T01:24:13;15.00;11.00;8.00
62599;PMS7003;48671;48.922;2.346;2022-09-24T01:29:27;15.50;14.00;8.00
62599;PMS7003;48671;48.922;2.346;2022-09-24T01:32:06;15.75;11.50;7.00
62599;PMS7003;48671;48.922;2.346;2022-09-24T01:34:52;15.25;13.00;8.25
62599;PMS7003;48671;48.922;2.346;2022-09-24T01:37:25;12.50;10.00;8.00
62599;PMS7003;48671;48.922;2.346;2022-09-24T01:39:55;18.50;13.50;7.75
62599;PMS7003;48671;48.922;2.346;2022-09-24T01:42:23;13.50;12.25;8.00
62599;PMS7003;48671;48.922;2.346;2022-09-24T01:44:53;16.75;16.25;9.25
62599;PMS7003;48671;48.922;2.346;2022-09-24T01:47:21;16.75;12.00;8.25
62599;PMS7003;48671;48.922;2.346;2022-09-24T01:49:53;15.50;13.25;8.00
62599;PMS7003;48671;48.922;2.346;2022-09-24T01:52:21;18.75;13.00;8.25
62599;PMS7003;48671;48.922;2.346;2022-09-24T01:54:54;13.50;10.25;6.25
62599;PMS7003;48671;48.922;2.346;2022-09-24T01:57:26;14.50;12.25;7.75
62599;PMS7003;48671;48.922;2.346;2022-09-24T02:00:03;13.25;12.50;7.50
62599;PMS7003;48671;48.922;2.346;2022-09-24T02:05:18;17.50;15.00;8.00
62599;PMS7003;48671;48.922;2.346;2022-09-24T02:07:54;8.00;7.00;6.75
62599;PMS7003;48671;48.922;2.346;2022-09-24T02:10:29;17.00;14.25;9.00
62599;PMS7003;48671;48.922;2.346;2022-09-24T02:13:01;15.00;12.25;7.75
62599;PMS7003;48671;48.922;2.346;2022-09-24T02:15:34;9.50;9.50;5.75
62599;PMS7003;48671;48.922;2.346;2022-09-24T02:18:04;19.25;15.50;8.25
62599;PMS7003;48671;48.922;2.346;2022-09-24T02:20:33;12.00;11.25;8.25
62599;PMS7003;48671;48.922;2.346;2022-09-24T02:23:02;11.25;11.00;8.00
62599;PMS7003;48671;48.922;2.346;2022-09-24T02:25:31;16.75;15.00;9.00
62599;PMS7003;48671;48.922;2.346;2022-09-24T02:28:01;14.75;11.00;7.25
62599;PMS7003;48671;48.922;2.346;2022-09-24T02:30:27;16.75;13.25;9.00
62599;PMS7003;48671;48.922;2.346;2022-09-24T02:32:55;13.25;10.00;8.00
62599;PMS7003;48671;48.922;2.346;2022-09-24T02:35:21;15.50;13.00;9.00
62599;PMS7003;48671;48.922;2.346;2022-09-24T02:37:47;15.25;14.25;8.50
62599;PMS7003;48671;48.922;2.346;2022-09-24T02:40:12;11.75;9.00;6.00
62599;PMS7003;48671;48.922;2.346;2022-09-24T02:42:39;15.00;11.00;7.75
62599;PMS7003;48671;48.922;2.346;2022-09-24T02:45:06;12.00;10.00;7.25
62599;PMS7003;48671;48.922;2.346;2022-09-24T02:47:32;13.50;8.75;6.00
62599;PMS7003;48671;48.922;2.346;2022-09-24T02:49:57;12.75;10.00;8.00
62599;PMS7003;48671;48.922;2.346;2022-09-24T02:52:23;16.25;15.75;8.25
62599;PMS7003;48671;48.922;2.346;2022-09-24T02:54:48;14.00;12.75;9.00
62599;PMS7003;48671;48.922;2.346;2022-09-24T02:57:14;12.25;10.25;7.50
62599;PMS7003;48671;48.922;2.346;2022-09-24T02:59:41;15.00;11.50;7.25
62599;PMS7003;48671;48.922;2.346;2022-09-24T03:02:06;15.00;14.50;8.00
62599;PMS7003;48671;48.922;2.346;2022-09-24T03:04:31;10.50;10.25;8.00
62599;PMS7003;48671;48.922;2.346;2022-09-24T03:06:57;16.50;14.25;9.50
62599;PMS7003;48671;48.922;2.346;2022-09-24T03:09:22;12.50;9.75;6.25
62599;PMS7003;48671;48.922;2.346;2022-09-24T03:11:48;14.75;12.00;8.00
62599;PMS7003;48671;48.922;2.346;2022-09-24T03:14:14;18.00;14.50;8.00
62599;PMS7003;48671;48.922;2.346;2022-09-24T03:16:39;15.75;14.25;8.75
62599;PMS7003;48671;48.922;2.346;2022-09-24T03:19:05;16.75;15.75;8.25
62599;PMS7003;48671;48.922;2.346;2022-09-24T03:21:31;14.75;14.75;9.25
62599;PMS7003;48671;48.922;2.346;2022-09-24T03:23:56;15.50;13.50;8.50
62599;PMS7003;48671;48.922;2.346;2022-09-24T03:26:22;20.25;14.25;9.25
62599;PMS7003;48671;48.922;2.346;2022-09-24T03:28:48;15.00;14.00;9.00
62599;PMS7003;48671;48.922;2.346;2022-09-24T03:31:13;15.00;12.50;7.25
62599;PMS7003;48671;48.922;2.346;2022-09-24T03:33:39;18.00;15.00;10.00
62599;PMS7003;48671;48.922;2.346;2022-09-24T03:38:44;17.75;15.75;10.00
62599;PMS7003;48671;48.922;2.346;2022-09-24T03:41:11;15.00;13.75;9.00
62599;PMS7003;48671;48.922;2.346;2022-09-24T03:43:37;17.75;15.25;10.00
62599;PMS7003;48671;48.922;2.346;2022-09-24T03:46:03;16.00;14.50;10.75
62599;PMS7003;48671;48.922;2.346;2022-09-24T03:48:34;14.25;10.50;7.00
62599;PMS7003;48671;48.922;2.346;2022-09-24T03:51:05;19.00;14.75;9.00
62599;PMS7003;48671;48.922;2.346;2022-09-24T03:53:34;14.75;13.00;8.75
62599;PMS7003;48671;48.922;2.346;2022-09-24T03:56:00;17.50;15.50;9.00
62599;PMS7003;48671;48.922;2.346;2022-09-24T03:58:27;19.75;15.25;9.00
62599;PMS7003;48671;48.922;2.346;2022-09-24T04:00:55;17.25;15.00;9.00
62599;PMS7003;48671;48.922;2.346;2022-09-24T04:03:21;14.50;14.00;8.00
62599;PMS7003;48671;48.922;2.346;2022-09-24T04:05:47;18.50;15.25;9.00
62599;PMS7003;48671;48.922;2.346;2022-09-24T04:08:15;21.50;13.75;7.25
62599;PMS7003;48671;48.922;2.346;2022-09-24T04:10:44;15.75;14.75;8.75
62599;PMS7003;48671;48.922;2.346;2022-09-24T04:13:11;17.25;14.50;8.00
62599;PMS7003;48671;48.922;2.346;2022-09-24T04:15:37;15.75;14.25;9.00
62599;PMS7003;48671;48.922;2.346;2022-09-24T04:18:02;17.00;13.25;8.25
62599;PMS7003;48671;48.922;2.346;2022-09-24T04:20:28;13.50;13.00;8.00
62599;PMS7003;48671;48.922;2.346;2022-09-24T04:22:55;17.00;15.50;10.25
62599;PMS7003;48671;48.922;2.346;2022-09-24T04:25:22;17.50;15.00;8.25
62599;PMS7003;48671;48.922;2.346;2022-09-24T04:27:55;18.75;15.50;9.00
62599;PMS7003;48671;48.922;2.346;2022-09-24T04:30:23;16.25;14.25;9.00
62599;PMS7003;48671;48.922;2.346;2022-09-24T04:32:49;17.25;14.00;9.75
62599;PMS7003;48671;48.922;2.346;2022-09-24T04:35:16;16.25;12.75;8.25
62599;PMS7003;48671;48.922;2.346;2022-09-24T04:37:45;17.00;14.00;8.75
62599;PMS7003;48671;48.922;2.346;2022-09-24T04:40:11;14.00;13.75;9.00
62599;PMS7003;48671;48.922;2.346;2022-09-24T04:42:37;17.00;15.25;10.25
62599;PMS7003;48671;48.922;2.346;2022-09-24T04:45:07;7.00;7.00;6.00
62599;PMS7003;48671;48.922;2.346;2022-09-24T04:47:34;16.00;13.25;9.25
62599;PMS7003;48671;48.922;2.346;2022-09-24T04:50:04;16.00;15.50;8.00
62599;PMS7003;48671;48.922;2.346;2022-09-24T04:52:31;13.50;13.00;8.75
62599;PMS7003;48671;48.922;2.346;2022-09-24T04:55:00;16.50;15.00;8.75
62599;PMS7003;48671;48.922;2.346;2022-09-24T04:57:26;14.50;12.50;8.50
62599;PMS7003;48671;48.922;2.346;2022-09-24T04:59:52;15.50;13.75;8.00
62599;PMS7003;48671;48.922;2.346;2022-09-24T05:02:18;15.25;13.00;8.00
62599;PMS7003;48671;48.922;2.346;2022-09-24T05:04:43;16.50;12.50;7.25
62599;PMS7003;48671;48.922;2.346;2022-09-24T05:07:09;14.25;14.25;7.00
62599;PMS7003;48671;48.922;2.346;2022-09-24T05:09:35;12.00;12.00;7.75
62599;PMS7003;48671;48.922;2.346;2022-09-24T05:12:01;14.00;12.75;7.00
62599;PMS7003;48671;48.922;2.346;2022-09-24T05:14:27;14.50;13.25;8.25
62599;PMS7003;48671;48.922;2.346;2022-09-24T05:16:52;15.75;12.00;7.25
62599;PMS7003;48671;48.922;2.346;2022-09-24T05:19:18;14.25;13.00;8.00
62599;PMS7003;48671;48.922;2.346;2022-09-24T05:21:44;16.50;13.75;8.00
62599;PMS7003;48671;48.922;2.346;2022-09-24T05:24:10;15.00;15.00;9.00
62599;PMS7003;48671;48.922;2.346;2022-09-24T05:26:36;16.00;13.00;8.00
62599;PMS7003;48671;48.922;2.346;2022-09-24T05:29:20;16.00;14.00;8.00
62599;PMS7003;48671;48.922;2.346;2022-09-24T05:31:45;19.00;16.33;8.00
62599;PMS7003;48671;48.922;2.346;2022-09-24T05:34:10;15.50;14.75;7.00
62599;PMS7003;48671;48.922;2.346;2022-09-24T05:36:36;14.00;12.75;7.25
62599;PMS7003;48671;48.922;2.346;2022-09-24T05:39:01;18.00;15.00;9.00
62599;PMS7003;48671;48.922;2.346;2022-09-24T05:41:27;16.00;13.25;8.75
62599;PMS7003;48671;48.922;2.346;2022-09-24T05:43:52;17.50;13.75;8.25
62599;PMS7003;48671;48.922;2.346;2022-09-24T05:46:18;12.25;12.25;8.50
62599;PMS7003;48671;48.922;2.346;2022-09-24T05:48:43;21.50;18.75;11.75
62599;PMS7003;48671;48.922;2.346;2022-09-24T05:51:09;23.75;19.00;12.25
62599;PMS7003;48671;48.922;2.346;2022-09-24T05:53:34;14.67;13.67;9.00
62599;PMS7003;48671;48.922;2.346;2022-09-24T05:55:59;18.75;16.00;9.25
62599;PMS7003;48671;48.922;2.346;2022-09-24T05:58:25;15.00;12.75;9.00
62599;PMS7003;48671;48.922;2.346;2022-09-24T06:00:51;16.00;13.25;9.00
62599;PMS7003;48671;48.922;2.346;2022-09-24T06:03:17;10.50;10.25;8.00
62599;PMS7003;48671;48.922;2.346;2022-09-24T06:05:47;11.75;9.50;8.00
62599;PMS7003;48671;48.922;2.346;2022-09-24T06:08:14;18.00;14.50;9.50
62599;PMS7003;48671;48.922;2.346;2022-09-24T06:10:41;2.00;0.00;0.00
62599;PMS7003;48671;48.922;2.346;2022-09-24T06:13:07;13.50;12.00;7.75
62599;PMS7003;48671;48.922;2.346;2022-09-24T06:15:35;15.75;12.00;5.75
62599;PMS7003;48671;48.922;2.346;2022-09-24T06:18:02;18.50;14.25;10.00
62599;PMS7003;48671;48.922;2.346;2022-09-24T06:20:28;16.25;14.00;8.00
62599;PMS7003;48671;48.922;2.346;2022-09-24T06:22:54;18.25;15.75;9.00
62599;PMS7003;48671;48.922;2.346;2022-09-24T06:25:21;15.50;11.00;7.75
62599;PMS7003;48671;48.922;2.346;2022-09-24T06:27:52;19.25;13.00;8.75
62599;PMS7003;48671;48.922;2.346;2022-09-24T06:30:20;20.50;16.25;9.25
62599;PMS7003;48671;48.922;2.346;2022-09-24T06:32:45;18.75;15.25;9.25
62599;PMS7003;48671;48.922;2.346;2022-09-24T06:35:10;15.50;14.25;10.00
62599;PMS7003;48671;48.922;2.346;2022-09-24T06:37:35;17.33;16.67;9.00
62599;PMS7003;48671;48.922;2.346;2022-09-24T06:40:01;14.75;13.00;9.00
62599;PMS7003;48671;48.922;2.346;2022-09-24T06:42:26;16.50;16.00;8.50
62599;PMS7003;48671;48.922;2.346;2022-09-24T06:44:52;14.50;12.75;7.50
62599;PMS7003;48671;48.922;2.346;2022-09-24T06:47:17;20.50;16.00;9.25
62599;PMS7003;48671;48.922;2.346;2022-09-24T06:49:42;16.25;12.00;8.50
62599;PMS7003;48671;48.922;2.346;2022-09-24T06:52:08;17.50;14.75;9.00
62599;PMS7003;48671;48.922;2.346;2022-09-24T06:54:33;13.50;13.00;6.75
62599;PMS7003;48671;48.922;2.346;2022-09-24T06:56:58;13.75;12.50;8.00
62599;PMS7003;48671;48.922;2.346;2022-09-24T06:59:24;12.00;12.00;8.00
62599;PMS7003;48671;48.922;2.346;2022-09-24T07:01:49;15.50;11.00;7.00
62599;PMS7003;48671;48.922;2.346;2022-09-24T07:04:14;14.75;14.00;9.00
62599;PMS7003;48671;48.922;2.346;2022-09-24T07:06:40;14.50;11.75;7.00
62599;PMS7003;48671;48.922;2.346;2022-09-24T07:09:24;20.25;16.25;10.75
62599;PMS7003;48671;48.922;2.346;2022-09-24T07:11:49;15.50;13.00;7.50
62599;PMS7003;48671;48.922;2.346;2022-09-24T07:14:14;14.25;14.25;7.50
62599;PMS7003;48671;48.922;2.346;2022-09-24T07:16:40;17.75;14.50;8.75
62599;PMS7003;48671;48.922;2.346;2022-09-24T07:19:05;13.25;13.00;8.00
62599;PMS7003;48671;48.922;2.346;2022-09-24T07:21:30;15.75;15.50;9.25
62599;PMS7003;48671;48.922;2.346;2022-09-24T07:23:56;14.25;12.50;9.00
62599;PMS7003;48671;48.922;2.346;2022-09-24T07:26:21;16.50;15.50;8.00
62599;PMS7003;48671;48.922;2.346;2022-09-24T07:28:47;22.25;15.00;9.00
62599;PMS7003;48671;48.922;2.346;2022-09-24T07:31:12;16.75;13.50;8.00
62599;PMS7003;48671;48.922;2.346;2022-09-24T07:33:38;14.50;13.50;8.75
62599;PMS7003;48671;48.922;2.346;2022-09-24T07:36:03;13.67;13.67;9.33
62599;PMS7003;48671;48.922;2.346;2022-09-24T07:38:31;15.25;14.50;9.50
62599;PMS7003;48671;48.922;2.346;2022-09-24T07:40:56;13.75;12.00;8.00
62599;PMS7003;48671;48.922;2.346;2022-09-24T07:43:22;16.25;14.25;9.00
62599;PMS7003;48671;48.922;2.346;2022-09-24T07:45:48;8.00;8.00;6.25
62599;PMS7003;48671;48.922;2.346;2022-09-24T07:48:13;8.33;7.00;5.00
62599;PMS7003;48671;48.922;2.346;2022-09-24T07:50:40;15.00;15.00;9.50
62599;PMS7003;48671;48.922;2.346;2022-09-24T07:53:07;14.50;11.75;6.00
62599;PMS7003;48671;48.922;2.346;2022-09-24T07:55:35;16.00;15.00;9.00
62599;PMS7003;48671;48.922;2.346;2022-09-24T07:58:05;16.25;13.00;8.00
62599;PMS7003;48671;48.922;2.346;2022-09-24T08:00:32;20.00;14.25;8.50
62599;PMS7003;48671;48.922;2.346;2022-09-24T08:03:00;16.50;14.75;9.75
62599;PMS7003;48671;48.922;2.346;2022-09-24T08:05:25;16.25;15.00;8.75
62599;PMS7003;48671;48.922;2.346;2022-09-24T08:07:52;17.75;16.00;10.50
62599;PMS7003;48671;48.922;2.346;2022-09-24T08:10:19;19.50;17.50;13.00
62599;PMS7003;48671;48.922;2.346;2022-09-24T08:12:44;23.00;18.75;11.75
62599;PMS7003;48671;48.922;2.346;2022-09-24T08:15:10;23.00;18.50;12.50
62599;PMS7003;48671;48.922;2.346;2022-09-24T08:17:35;16.50;16.00;11.75
62599;PMS7003;48671;48.922;2.346;2022-09-24T08:20:01;18.67;17.67;12.67
62599;PMS7003;48671;48.922;2.346;2022-09-24T08:22:26;20.00;17.00;11.00
62599;PMS7003;48671;48.922;2.346;2022-09-24T08:24:51;17.00;16.33;10.67
62599;PMS7003;48671;48.922;2.346;2022-09-24T08:27:17;20.75;17.00;10.00
62599;PMS7003;48671;48.922;2.346;2022-09-24T08:29:47;27.00;25.00;16.00
62599;PMS7003;48671;48.922;2.346;2022-09-24T08:32:13;31.25;28.00;17.50
62599;PMS7003;48671;48.922;2.346;2022-09-24T08:34:38;35.75;32.00;18.50
62599;PMS7003;48671;48.922;2.346;2022-09-24T08:37:04;27.25;24.50;17.00
62599;PMS7003;48671;48.922;2.346;2022-09-24T08:39:33;27.00;24.75;15.75
62599;PMS7003;48671;48.922;2.346;2022-09-24T08:42:00;35.50;25.75;16.00
62599;PMS7003;48671;48.922;2.346;2022-09-24T08:44:39;29.50;25.75;15.25
62599;PMS7003;48671;48.922;2.346;2022-09-24T08:50:01;27.75;25.25;16.00
62599;PMS7003;48671;48.922;2.346;2022-09-24T09:06:11;30.00;26.50;18.00
62599;PMS7003;48671;48.922;2.346;2022-09-24T09:11:19;30.50;25.75;16.25
62599;PMS7003;48671;48.922;2.346;2022-09-24T09:13:51;32.50;27.00;16.00
62599;PMS7003;48671;48.922;2.346;2022-09-24T09:16:26;30.75;25.25;16.50
62599;PMS7003;48671;48.922;2.346;2022-09-24T09:18:59;29.00;27.50;17.50
62599;PMS7003;48671;48.922;2.346;2022-09-24T09:21:33;25.25;23.25;15.75
62599;PMS7003;48671;48.922;2.346;2022-09-24T09:27:13;29.00;25.50;15.75
62599;PMS7003;48671;48.922;2.346;2022-09-24T09:29:39;29.00;28.00;16.75
62599;PMS7003;48671;48.922;2.346;2022-09-24T09:35:10;28.50;22.50;15.00
62599;PMS7003;48671;48.922;2.346;2022-09-24T09:42:58;25.00;23.50;16.75
62599;PMS7003;48671;48.922;2.346;2022-09-24T09:48:13;25.75;19.25;13.00
62599;PMS7003;48671;48.922;2.346;2022-09-24T09:50:44;21.50;18.00;14.00
62599;PMS7003;48671;48.922;2.346;2022-09-24T09:53:25;20.50;17.75;10.00
62599;PMS7003;48671;48.922;2.346;2022-09-24T09:55:55;19.00;17.75;11.50
62599;PMS7003;48671;48.922;2.346;2022-09-24T09:58:24;20.00;19.00;11.25
62599;PMS7003;48671;48.922;2.346;2022-09-24T10:01:20;26.50;20.00;12.75
62599;PMS7003;48671;48.922;2.346;2022-09-24T10:03:56;23.75;16.50;11.25
62599;PMS7003;48671;48.922;2.346;2022-09-24T10:06:29;19.50;17.00;10.50
62599;PMS7003;48671;48.922;2.346;2022-09-24T10:09:06;22.50;17.50;11.75
62599;PMS7003;48671;48.922;2.346;2022-09-24T10:11:36;17.75;15.25;10.00
62599;PMS7003;48671;48.922;2.346;2022-09-24T10:14:05;16.75;14.75;9.25
62599;PMS7003;48671;48.922;2.346;2022-09-24T10:16:36;18.25;16.00;10.00
62599;PMS7003;48671;48.922;2.346;2022-09-24T10:19:09;20.50;17.75;11.25
62599;PMS7003;48671;48.922;2.346;2022-09-24T10:21:40;15.50;14.25;8.50
62599;PMS7003;48671;48.922;2.346;2022-09-24T10:24:09;17.50;17.50;10.25
62599;PMS7003;48671;48.922;2.346;2022-09-24T10:26:41;20.00;16.00;9.00
62599;PMS7003;48671;48.922;2.346;2022-09-24T10:29:50;19.00;16.75;10.50
62599;PMS7003;48671;48.922;2.346;2022-09-24T10:32:16;20.50;16.00;11.25
62599;PMS7003;48671;48.922;2.346;2022-09-24T10:34:57;22.00;18.00;11.00
62599;PMS7003;48671;48.922;2.346;2022-09-24T10:37:24;21.50;18.25;11.50
62599;PMS7003;48671;48.922;2.346;2022-09-24T10:40:00;22.75;19.25;11.00
62599;PMS7003;48671;48.922;2.346;2022-09-24T10:42:35;24.00;18.50;10.75
62599;PMS7003;48671;48.922;2.346;2022-09-24T10:45:01;18.75;17.00;11.00
62599;PMS7003;48671;48.922;2.346;2022-09-24T10:52:55;20.00;16.25;11.00
62599;PMS7003;48671;48.922;2.346;2022-09-24T10:58:07;17.25;16.00;11.00
62599;PMS7003;48671;48.922;2.346;2022-09-24T11:06:32;20.00;19.25;12.25
62599;PMS7003;48671;48.922;2.346;2022-09-24T11:12:15;18.75;18.75;13.00
62599;PMS7003;48671;48.922;2.346;2022-09-24T11:15:02;21.00;17.25;10.00
62599;PMS7003;48671;48.922;2.346;2022-09-24T11:18:07;22.75;21.00;12.50
62599;PMS7003;48671;48.922;2.346;2022-09-24T11:34:40;19.50;18.50;10.25
62599;PMS7003;48671;48.922;2.346;2022-09-24T11:51:10;20.25;18.25;12.50
62599;PMS7003;48671;48.922;2.346;2022-09-24T11:53:41;23.00;21.50;13.25
62599;PMS7003;48671;48.922;2.346;2022-09-24T11:56:25;26.50;20.50;13.00
62599;PMS7003;48671;48.922;2.346;2022-09-24T11:59:06;24.25;20.50;14.00
62599;PMS7003;48671;48.922;2.346;2022-09-24T12:01:38;22.75;22.25;13.00
62599;PMS7003;48671;48.922;2.346;2022-09-24T12:04:16;24.00;18.50;14.00
62599;PMS7003;48671;48.922;2.346;2022-09-24T12:07:08;22.00;20.25;12.00
62599;PMS7003;48671;48.922;2.346;2022-09-24T12:12:28;19.50;16.00;12.00
62599;PMS7003;48671;48.922;2.346;2022-09-24T12:15:00;22.00;18.00;12.00
62599;PMS7003;48671;48.922;2.346;2022-09-24T12:20:17;24.25;21.75;14.25
62599;PMS7003;48671;48.922;2.346;2022-09-24T12:22:50;17.25;16.50;11.50
62599;PMS7003;48671;48.922;2.346;2022-09-24T12:25:23;19.25;17.00;13.00
62599;PMS7003;48671;48.922;2.346;2022-09-24T12:27:51;22.50;18.50;13.50
62599;PMS7003;48671;48.922;2.346;2022-09-24T12:30:27;18.00;17.75;12.50
62599;PMS7003;48671;48.922;2.346;2022-09-24T12:35:50;19.25;18.50;14.00
62599;PMS7003;48671;48.922;2.346;2022-09-24T12:46:40;20.50;16.75;13.00
62599;PMS7003;48671;48.922;2.346;2022-09-24T12:49:29;16.75;16.75;11.00
62599;PMS7003;48671;48.922;2.346;2022-09-24T12:51:59;18.75;17.50;12.00
62599;PMS7003;48671;48.922;2.346;2022-09-24T12:54:34;22.75;17.00;12.00
62599;PMS7003;48671;48.922;2.346;2022-09-24T12:59:51;20.75;20.25;12.25
62599;PMS7003;48671;48.922;2.346;2022-09-24T13:02:23;18.50;18.50;13.00
62599;PMS7003;48671;48.922;2.346;2022-09-24T13:07:42;23.25;21.25;12.50
62599;PMS7003;48671;48.922;2.346;2022-09-24T13:10:25;22.75;20.00;13.00
62599;PMS7003;48671;48.922;2.346;2022-09-24T13:12:59;22.75;18.50;13.00
62599;PMS7003;48671;48.922;2.346;2022-09-24T13:15:30;23.00;20.00;14.00
62599;PMS7003;48671;48.922;2.346;2022-09-24T13:18:02;14.50;11.00;7.50
62599;PMS7003;48671;48.922;2.346;2022-09-24T13:20:30;23.75;22.75;15.00
62599;PMS7003;48671;48.922;2.346;2022-09-24T13:23:13;19.50;17.75;12.00
62599;PMS7003;48671;48.922;2.346;2022-09-24T13:26:03;21.75;19.00;12.75
62599;PMS7003;48671;48.922;2.346;2022-09-24T13:28:31;23.50;18.25;13.25
62599;PMS7003;48671;48.922;2.346;2022-09-24T13:33:46;21.50;16.50;12.00
62599;PMS7003;48671;48.922;2.346;2022-09-24T13:36:26;19.50;17.25;10.75
62599;PMS7003;48671;48.922;2.346;2022-09-24T13:41:46;20.25;17.00;12.00
62599;PMS7003;48671;48.922;2.346;2022-09-24T13:47:12;17.50;15.00;10.00
62599;PMS7003;48671;48.922;2.346;2022-09-24T13:49:51;19.25;17.00;11.00
62599;PMS7003;48671;48.922;2.346;2022-09-24T13:52:33;20.25;18.50;11.25
62599;PMS7003;48671;48.922;2.346;2022-09-24T13:55:09;21.75;14.00;10.00
62599;PMS7003;48671;48.922;2.346;2022-09-24T13:57:43;15.75;14.75;11.50
62599;PMS7003;48671;48.922;2.346;2022-09-24T14:02:53;15.00;11.50;9.75
62599;PMS7003;48671;48.922;2.346;2022-09-24T14:05:20;14.50;14.50;10.00
62599;PMS7003;48671;48.922;2.346;2022-09-24T14:07:56;20.25;16.00;10.25
62599;PMS7003;48671;48.922;2.346;2022-09-24T14:10:31;16.50;14.25;11.00
62599;PMS7003;48671;48.922;2.346;2022-09-24T14:18:20;20.25;16.50;10.75
62599;PMS7003;48671;48.922;2.346;2022-09-24T14:20:54;14.75;13.25;10.00
62599;PMS7003;48671;48.922;2.346;2022-09-24T14:23:25;22.25;17.00;10.50
62599;PMS7003;48671;48.922;2.346;2022-09-24T14:25:56;14.00;13.00;10.25
62599;PMS7003;48671;48.922;2.346;2022-09-24T14:28:22;16.50;15.75;11.00
62599;PMS7003;48671;48.922;2.346;2022-09-24T14:30:50;15.75;12.75;10.00
62599;PMS7003;48671;48.922;2.346;2022-09-24T14:33:19;15.00;14.00;10.00
62599;PMS7003;48671;48.922;2.346;2022-09-24T14:35:50;15.25;13.75;10.00
62599;PMS7003;48671;48.922;2.346;2022-09-24T14:38:20;13.75;13.50;9.00
62599;PMS7003;48671;48.922;2.346;2022-09-24T14:40:54;14.00;14.00;10.00
62599;PMS7003;48671;48.922;2.346;2022-09-24T14:44:08;14.50;13.50;8.75
62599;PMS7003;48671;48.922;2.346;2022-09-24T14:51:51;10.25;9.75;7.00
62599;PMS7003;48671;48.922;2.346;2022-09-24T14:59:43;15.25;14.75;10.00
62599;PMS7003;48671;48.922;2.346;2022-09-24T15:02:30;20.50;15.75;10.25
62599;PMS7003;48671;48.922;2.346;2022-09-24T15:04:59;15.00;10.50;7.00
62599;PMS7003;48671;48.922;2.346;2022-09-24T15:07:27;19.50;14.00;9.75
62599;PMS7003;48671;48.922;2.346;2022-09-24T15:09:56;15.25;14.00;10.00
62599;PMS7003;48671;48.922;2.346;2022-09-24T15:17:33;18.50;13.50;8.75
62599;PMS7003;48671;48.922;2.346;2022-09-24T15:20:00;16.25;14.75;8.75
62599;PMS7003;48671;48.922;2.346;2022-09-24T15:22:27;14.25;13.25;9.00
62599;PMS7003;48671;48.922;2.346;2022-09-24T15:24:54;18.25;14.25;10.25
62599;PMS7003;48671;48.922;2.346;2022-09-24T15:27:24;17.00;14.00;9.75
62599;PMS7003;48671;48.922;2.346;2022-09-24T15:30:00;17.25;14.25;10.00
62599;PMS7003;48671;48.922;2.346;2022-09-24T15:32:29;14.75;13.50;10.50
62599;PMS7003;48671;48.922;2.346;2022-09-24T15:34:56;17.00;14.00;9.25
62599;PMS7003;48671;48.922;2.346;2022-09-24T15:37:26;14.25;13.25;10.50
62599;PMS7003;48671;48.922;2.346;2022-09-24T15:39:55;12.50;12.00;9.00
62599;PMS7003;48671;48.922;2.346;2022-09-24T15:42:24;18.00;15.25;9.25
62599;PMS7003;48671;48.922;2.346;2022-09-24T15:44:51;15.75;14.00;10.00
62599;PMS7003;48671;48.922;2.346;2022-09-24T15:47:18;14.75;14.75;8.25
62599;PMS7003;48671;48.922;2.346;2022-09-24T15:49:44;14.00;12.50;9.25
62599;PMS7003;48671;48.922;2.346;2022-09-24T15:52:17;15.00;13.75;10.00
62599;PMS7003;48671;48.922;2.346;2022-09-24T15:54:52;14.75;14.75;10.00
62599;PMS7003;48671;48.922;2.346;2022-09-24T15:57:19;14.25;13.00;10.00
62599;PMS7003;48671;48.922;2.346;2022-09-24T15:59:46;16.00;13.50;10.00
62599;PMS7003;48671;48.922;2.346;2022-09-24T16:02:15;16.75;13.25;8.50
62599;PMS7003;48671;48.922;2.346;2022-09-24T16:04:44;21.00;19.50;11.25
62599;PMS7003;48671;48.922;2.346;2022-09-24T16:07:10;20.00;15.25;10.50
62599;PMS7003;48671;48.922;2.346;2022-09-24T16:09:35;11.75;10.50;7.25
62599;PMS7003;48671;48.922;2.346;2022-09-24T16:12:00;15.00;15.00;10.00
62599;PMS7003;48671;48.922;2.346;2022-09-24T16:14:26;14.00;14.00;10.00
62599;PMS7003;48671;48.922;2.346;2022-09-24T16:16:51;15.50;14.75;9.00
62599;PMS7003;48671;48.922;2.346;2022-09-24T16:19:17;17.00;16.00;10.00
62599;PMS7003;48671;48.922;2.346;2022-09-24T16:21:42;14.75;14.75;9.25
62599;PMS7003;48671;48.922;2.346;2022-09-24T16:24:07;16.50;13.25;8.75
62599;PMS7003;48671;48.922;2.346;2022-09-24T16:26:33;15.50;15.00;11.00
62599;PMS7003;48671;48.922;2.346;2022-09-24T16:29:02;19.50;17.50;10.00
62599;PMS7003;48671;48.922;2.346;2022-09-24T16:31:27;16.00;13.75;10.00